createdAt,value
2024-01-11T00:01:20.144Z,3.50
2024-01-11T00:03:47.628Z,3.37
2024-01-11T00:08:56.856Z,3.37
2024-01-11T00:11:24.374Z,3.67
2024-01-11T00:13:51.837Z,3.97
2024-01-11T00:16:19.111Z,3.13
2024-01-11T00:18:46.913Z,3.00
2024-01-11T00:21:14.237Z,3.73
2024-01-11T00:23:44.331Z,3.47
2024-01-11T00:26:14.611Z,3.33
2024-01-11T00:28:41.945Z,3.37
2024-01-11T00:31:12.197Z,3.30
2024-01-11T00:33:41.389Z,3.77
2024-01-11T00:42:00.123Z,3.57
2024-01-11T00:49:45.031Z,3.83
2024-01-11T00:52:15.092Z,3.17
2024-01-11T01:00:02.668Z,2.97
2024-01-11T01:02:30.090Z,3.10
2024-01-11T01:04:57.300Z,3.27
2024-01-11T01:20:55.126Z,4.17
2024-01-11T01:23:22.489Z,3.10
2024-01-11T01:25:50.582Z,3.37
2024-01-11T01:28:17.823Z,3.47
2024-01-11T01:30:47.588Z,3.53
2024-01-11T01:33:15.089Z,2.83
2024-01-11T01:35:42.583Z,3.57
2024-01-11T01:38:09.895Z,3.60
2024-01-11T01:40:38.898Z,4.07
2024-01-11T01:43:12.042Z,3.17
2024-01-11T01:45:39.518Z,3.67
2024-01-11T01:48:07.704Z,3.73
2024-01-11T01:50:35.199Z,3.50
2024-01-11T01:53:03.018Z,2.80
2024-01-11T01:55:31.128Z,4.87
2024-01-11T01:57:59.155Z,3.53
2024-01-11T02:00:26.897Z,3.33
2024-01-11T02:02:56.617Z,3.60
2024-01-11T02:05:24.856Z,4.03
2024-01-11T02:07:55.308Z,3.13
2024-01-11T02:10:25.063Z,3.70
2024-01-11T02:12:52.498Z,3.53
2024-01-11T02:15:19.876Z,3.57
2024-01-11T02:17:49.567Z,3.60
2024-01-11T02:20:17.158Z,3.43
2024-01-11T02:22:51.622Z,2.97
2024-01-11T02:25:18.867Z,3.10
2024-01-11T02:27:50.093Z,3.83
2024-01-11T02:30:18.277Z,2.90
2024-01-11T02:32:49.604Z,3.17
2024-01-11T02:35:18.132Z,3.30
2024-01-11T02:37:46.913Z,4.17
2024-01-11T02:40:16.290Z,3.10
2024-01-11T02:42:43.937Z,3.27
2024-01-11T02:45:13.839Z,3.17
2024-01-11T02:47:44.280Z,3.43
2024-01-11T02:50:13.914Z,3.50
2024-01-11T02:52:41.183Z,3.30
2024-01-11T02:55:08.668Z,2.90
2024-01-11T02:57:36.027Z,3.50
2024-01-11T03:00:03.670Z,3.17
2024-01-11T03:02:31.169Z,2.97
2024-01-11T03:04:58.561Z,3.37
2024-01-11T03:07:25.764Z,3.30
2024-01-11T03:09:53.190Z,3.87
2024-01-11T03:12:20.300Z,3.20
2024-01-11T03:14:47.542Z,3.73
2024-01-11T03:17:14.872Z,3.10
2024-01-11T03:19:42.613Z,3.73
2024-01-11T03:22:10.034Z,3.50
2024-01-11T03:24:40.609Z,3.17
2024-01-11T03:27:07.856Z,3.43
2024-01-11T03:29:35.400Z,2.97
2024-01-11T03:32:02.753Z,2.47
2024-01-11T03:34:30.190Z,3.73
2024-01-11T03:36:58.245Z,2.93
2024-01-11T03:39:27.286Z,2.97
2024-01-11T03:41:54.731Z,3.13
2024-01-11T03:46:57.580Z,3.43
2024-01-11T03:49:25.170Z,3.30
2024-01-11T03:51:52.543Z,3.23
2024-01-11T03:54:21.569Z,3.90
2024-01-11T03:56:49.471Z,3.33
2024-01-11T03:59:16.920Z,3.50
2024-01-11T04:01:44.210Z,2.60
2024-01-11T04:04:13.623Z,3.47
2024-01-11T04:07:10.906Z,3.17
2024-01-11T04:10:14.465Z,3.13
2024-01-11T04:15:57.728Z,3.20
2024-01-11T04:19:09.569Z,3.00
2024-01-11T04:21:57.544Z,3.17
2024-01-11T04:27:58.009Z,2.90
2024-01-11T04:30:28.895Z,3.27
2024-01-11T04:33:10.777Z,3.30
2024-01-11T04:48:13.676Z,2.93
2024-01-11T04:50:40.959Z,3.73
2024-01-11T04:53:08.522Z,3.03
2024-01-11T04:55:36.180Z,3.23
2024-01-11T04:58:03.538Z,4.00
2024-01-11T05:00:31.115Z,3.13
2024-01-11T05:02:58.259Z,2.90
2024-01-11T05:05:25.518Z,3.70
2024-01-11T05:07:52.595Z,3.60
2024-01-11T05:10:20.354Z,3.40
2024-01-11T05:12:47.628Z,3.87
2024-01-11T05:15:17.452Z,3.83
2024-01-11T05:17:54.000Z,3.67
2024-01-11T05:20:21.332Z,3.77
2024-01-11T05:22:48.554Z,3.57
2024-01-11T05:25:15.685Z,3.23
2024-01-11T05:27:42.772Z,3.30
2024-01-11T05:30:14.037Z,3.23
2024-01-11T05:35:16.735Z,3.60
2024-01-11T05:37:43.846Z,3.60
2024-01-11T05:40:11.599Z,2.80
2024-01-11T05:42:41.057Z,3.80
2024-01-11T05:45:12.619Z,3.60
2024-01-11T05:47:45.832Z,3.50
2024-01-11T05:50:19.062Z,3.37
2024-01-11T05:52:46.431Z,3.53
2024-01-11T05:55:15.819Z,3.30
2024-01-11T06:16:30.022Z,3.33
2024-01-11T06:21:32.671Z,3.23
2024-01-11T06:24:02.594Z,3.77
2024-01-11T06:37:39.125Z,3.23
2024-01-11T06:45:36.655Z,2.87
2024-01-11T06:48:07.823Z,3.77
2024-01-11T06:59:02.801Z,2.70
2024-01-11T07:04:16.551Z,2.30
2024-01-11T07:23:25.450Z,2.33
2024-01-11T07:25:52.741Z,2.10
2024-01-11T07:28:20.892Z,2.20
2024-01-11T07:30:57.855Z,2.03
2024-01-11T07:33:25.651Z,2.30
2024-01-11T07:35:55.553Z,2.00
2024-01-11T07:54:50.717Z,1.63
2024-01-11T07:57:19.965Z,1.40
2024-01-11T07:59:53.129Z,1.53
2024-01-11T08:02:23.340Z,1.70
2024-01-11T08:04:53.928Z,1.43
2024-01-11T08:07:22.090Z,1.97
2024-01-11T08:09:52.087Z,1.50
2024-01-11T08:12:19.257Z,1.70
2024-01-11T08:14:47.716Z,1.83
2024-01-11T08:17:15.384Z,1.37
2024-01-11T08:19:45.356Z,1.70
2024-01-11T08:22:12.673Z,1.30
2024-01-11T08:24:39.574Z,1.33
2024-01-11T08:27:07.108Z,1.50
2024-01-11T08:29:34.610Z,1.23
2024-01-11T08:32:15.301Z,1.00
2024-01-11T08:34:51.338Z,1.17
2024-01-11T08:37:18.340Z,1.17
2024-01-11T08:39:47.377Z,2.30
2024-01-11T08:42:16.376Z,2.50
2024-01-11T08:44:44.008Z,2.43
2024-01-11T08:47:11.662Z,1.40
2024-01-11T08:49:40.398Z,1.60
2024-01-11T08:52:09.176Z,1.10
2024-01-11T08:54:36.164Z,1.60
2024-01-11T08:57:03.156Z,1.43
2024-01-11T08:59:30.145Z,1.23
2024-01-11T09:02:06.272Z,1.73
2024-01-11T09:04:40.845Z,1.73
2024-01-11T09:07:07.780Z,1.90
2024-01-11T09:09:41.369Z,1.40
2024-01-11T09:12:14.504Z,1.53
2024-01-11T09:14:41.579Z,1.80
2024-01-11T09:17:09.845Z,1.83
2024-01-11T09:19:39.088Z,1.20
2024-01-11T09:22:06.313Z,1.70
2024-01-11T09:24:39.322Z,1.70
2024-01-11T09:27:07.821Z,1.40
2024-01-11T09:29:35.058Z,1.70
2024-01-11T09:32:02.421Z,1.27
2024-01-11T09:34:29.510Z,1.73
2024-01-11T09:37:00.257Z,1.67
2024-01-11T09:39:27.779Z,1.40
2024-01-11T09:42:02.222Z,1.40
2024-01-11T09:44:30.752Z,2.10
2024-01-11T09:46:59.703Z,2.23
2024-01-11T09:49:27.673Z,1.60
2024-01-11T09:51:57.838Z,1.43
2024-01-11T09:54:34.604Z,1.60
2024-01-11T09:57:04.509Z,1.47
2024-01-11T09:59:31.924Z,2.03
2024-01-11T10:01:59.738Z,2.30
2024-01-11T10:04:27.210Z,2.33
2024-01-11T10:06:56.378Z,2.50
2024-01-11T10:09:24.006Z,2.17
2024-01-11T10:11:52.254Z,2.70
2024-01-11T10:14:19.248Z,2.33
2024-01-11T10:16:46.434Z,2.57
2024-01-11T10:19:16.997Z,2.20
2024-01-11T10:21:44.075Z,2.50
2024-01-11T10:24:11.313Z,2.30
2024-01-11T10:26:38.279Z,3.30
2024-01-11T10:29:13.158Z,2.90
2024-01-11T10:31:41.412Z,3.20
2024-01-11T10:34:08.388Z,2.87
2024-01-11T10:36:35.435Z,2.50
2024-01-11T10:39:07.174Z,3.03
2024-01-11T10:41:44.644Z,3.03
2024-01-11T10:44:22.787Z,2.73
2024-01-11T10:46:56.839Z,3.20
2024-01-11T10:49:26.582Z,3.57
2024-01-11T10:52:01.363Z,3.03
2024-01-11T10:54:32.044Z,2.50
2024-01-11T10:57:01.290Z,2.70
2024-01-11T10:59:28.837Z,1.83
2024-01-11T11:01:59.172Z,1.60
2024-01-11T11:04:26.748Z,1.37
2024-01-11T11:06:59.904Z,1.33
2024-01-11T11:09:28.897Z,1.30
2024-01-11T11:11:59.494Z,1.23
2024-01-11T11:14:26.586Z,1.57
2024-01-11T11:17:00.698Z,1.10
2024-01-11T11:19:28.651Z,1.10
2024-01-11T11:21:56.130Z,1.20
2024-01-11T11:24:23.039Z,1.17
2024-01-11T11:26:50.041Z,1.30
2024-01-11T11:29:17.869Z,1.40
2024-01-11T11:31:54.640Z,1.87
2024-01-11T11:34:22.212Z,1.70
2024-01-11T11:36:51.411Z,1.33
2024-01-11T11:39:20.913Z,1.63
2024-01-11T11:41:50.891Z,1.50
2024-01-11T11:44:18.165Z,1.20
2024-01-11T11:46:46.322Z,1.20
2024-01-11T11:49:14.822Z,1.50
2024-01-11T11:51:44.280Z,1.00
2024-01-11T11:54:11.822Z,1.07
2024-01-11T11:56:39.567Z,1.23
2024-01-11T11:59:09.452Z,0.90
2024-01-11T12:01:37.042Z,1.43
2024-01-11T12:04:04.152Z,1.33
2024-01-11T12:06:31.304Z,1.47
2024-01-11T12:08:58.994Z,1.50
2024-01-11T12:11:26.571Z,1.13
2024-01-11T12:13:55.237Z,1.10
2024-01-11T12:16:22.193Z,1.53
2024-01-11T12:18:50.908Z,1.57
2024-01-11T12:21:18.206Z,1.17
2024-01-11T12:23:45.958Z,1.43
2024-01-11T12:26:14.891Z,1.20
2024-01-11T12:28:43.702Z,1.20
2024-01-11T12:31:11.116Z,2.03
2024-01-11T12:33:40.126Z,2.07
2024-01-11T12:36:09.533Z,1.73
2024-01-11T12:38:37.188Z,1.93
2024-01-11T12:41:05.936Z,2.00
2024-01-11T12:43:33.019Z,1.90
2024-01-11T12:46:00.669Z,1.53
2024-01-11T12:48:27.835Z,2.47
2024-01-11T12:51:10.087Z,1.97
2024-01-11T12:53:41.834Z,1.80
2024-01-11T12:56:12.403Z,2.00
2024-01-11T12:58:39.610Z,1.43
2024-01-11T13:01:08.957Z,1.70
2024-01-11T13:03:40.917Z,1.90
2024-01-11T13:06:10.130Z,1.70
2024-01-11T13:08:38.764Z,1.87
2024-01-11T13:11:08.635Z,1.67
2024-01-11T13:13:36.126Z,2.10
2024-01-11T13:16:15.605Z,2.13
2024-01-11T13:18:42.732Z,2.20
2024-01-11T13:21:10.842Z,2.37
2024-01-11T13:23:39.258Z,2.17
2024-01-11T13:26:07.622Z,2.87
2024-01-11T13:28:34.877Z,2.97
2024-01-11T13:31:03.583Z,2.90
2024-01-11T13:33:30.953Z,2.67
2024-01-11T13:35:58.376Z,3.00
2024-01-11T13:38:25.782Z,3.17
2024-01-11T13:40:53.700Z,2.40
2024-01-11T13:43:20.693Z,3.20
2024-01-11T13:45:47.966Z,2.10
2024-01-11T13:48:14.932Z,1.90
2024-01-11T13:50:42.217Z,2.00
2024-01-11T13:53:09.256Z,1.80
2024-01-11T13:55:40.112Z,2.30
2024-01-11T13:58:07.964Z,2.40
2024-01-11T14:00:35.122Z,2.60
2024-01-11T14:03:02.727Z,1.90
2024-01-11T14:05:29.878Z,2.23
2024-01-11T14:08:00.438Z,2.27
2024-01-11T14:10:29.230Z,2.40
2024-01-11T14:12:56.706Z,2.53
2024-01-11T14:15:24.276Z,2.10
2024-01-11T14:17:51.895Z,2.33
2024-01-11T14:20:19.217Z,2.37
2024-01-11T14:22:53.073Z,3.10
2024-01-11T14:25:21.140Z,2.50
2024-01-11T14:27:49.331Z,2.50
2024-01-11T14:30:16.546Z,3.13
2024-01-11T14:32:44.141Z,2.40
2024-01-11T14:35:11.641Z,2.60
2024-01-11T14:37:40.471Z,3.87
2024-01-11T14:40:09.097Z,3.60
2024-01-11T14:42:36.017Z,4.50
2024-01-11T14:45:04.934Z,4.57
2024-01-11T14:47:35.305Z,4.90
2024-01-11T14:50:04.841Z,3.90
2024-01-11T14:52:32.291Z,4.10
2024-01-11T14:54:59.178Z,3.33
2024-01-11T14:57:26.105Z,4.40
2024-01-11T14:59:54.024Z,4.37
2024-01-11T15:02:21.178Z,4.10
2024-01-11T15:04:48.409Z,5.30
2024-01-11T15:07:15.745Z,5.77
2024-01-11T15:09:44.038Z,6.73
2024-01-11T15:12:11.086Z,4.40
2024-01-11T15:14:38.321Z,5.10
2024-01-11T15:17:05.578Z,4.83
2024-01-11T15:19:32.992Z,5.23
2024-01-11T15:22:00.600Z,5.27
2024-01-11T15:24:29.385Z,4.90
2024-01-11T15:26:56.652Z,4.13
2024-01-11T15:29:23.707Z,4.63
2024-01-11T15:31:51.549Z,4.73
2024-01-11T15:34:19.638Z,4.57
2024-01-11T15:36:47.707Z,3.93
2024-01-11T15:39:24.608Z,5.60
2024-01-11T15:41:56.796Z,5.00
2024-01-11T15:44:25.561Z,4.33
2024-01-11T15:46:52.513Z,4.33
2024-01-11T15:49:19.468Z,4.20
2024-01-11T15:51:46.387Z,4.63
2024-01-11T15:54:13.361Z,4.00
2024-01-11T15:56:40.294Z,4.70
2024-01-11T15:59:08.508Z,4.10
2024-01-11T16:01:46.572Z,4.37
2024-01-11T16:04:22.862Z,5.00
2024-01-11T16:06:50.349Z,4.80
2024-01-11T16:09:17.380Z,3.63
2024-01-11T16:11:44.469Z,3.93
2024-01-11T16:14:11.532Z,3.87
2024-01-11T16:16:38.762Z,4.70
2024-01-11T16:19:05.788Z,4.17
2024-01-11T16:21:33.262Z,4.57
2024-01-11T16:24:02.935Z,10.07
2024-01-11T16:26:30.877Z,4.13
2024-01-11T16:28:58.457Z,4.80
2024-01-11T16:31:25.616Z,3.87
2024-01-11T16:33:53.646Z,5.17
2024-01-11T16:36:20.721Z,4.67
2024-01-11T16:38:47.773Z,5.30
2024-01-11T16:41:14.952Z,5.67
2024-01-11T16:43:44.836Z,7.83
2024-01-11T16:46:23.378Z,5.40
2024-01-11T16:48:53.967Z,10.57
2024-01-11T16:51:21.183Z,9.47
2024-01-11T16:53:48.273Z,5.20
2024-01-11T16:56:15.576Z,9.70
2024-01-11T16:58:43.264Z,7.43
2024-01-11T17:01:11.352Z,6.40
2024-01-11T17:03:38.417Z,6.27
2024-01-11T17:06:06.026Z,4.57
2024-01-11T17:08:33.172Z,4.43
2024-01-11T17:11:00.125Z,6.27
2024-01-11T17:13:27.501Z,7.20
2024-01-11T17:15:54.749Z,6.97
2024-01-11T17:18:24.442Z,4.67
2024-01-11T17:20:51.730Z,4.20
2024-01-11T17:23:19.221Z,4.43
2024-01-11T17:25:46.685Z,4.30
2024-01-11T17:28:13.693Z,5.60
2024-01-11T17:30:40.759Z,4.83
2024-01-11T17:33:07.908Z,5.17
2024-01-11T17:35:34.970Z,5.60
2024-01-11T17:38:01.984Z,5.87
2024-01-11T17:40:31.004Z,5.10
2024-01-11T17:42:59.862Z,4.87
2024-01-11T17:45:26.720Z,6.63
2024-01-11T17:47:54.458Z,11.37
2024-01-11T17:50:22.483Z,21.37
2024-01-11T17:52:51.522Z,12.90
2024-01-11T17:55:19.113Z,8.20
2024-01-11T17:57:45.982Z,5.77
2024-01-11T18:00:13.818Z,8.17
2024-01-11T18:02:40.754Z,4.20
2024-01-11T18:05:08.235Z,4.60
2024-01-11T18:07:35.229Z,3.40
2024-01-11T18:10:03.558Z,5.13
2024-01-11T18:12:30.388Z,6.90
2024-01-11T18:14:57.782Z,4.63
2024-01-11T18:17:24.908Z,6.87
2024-01-11T18:19:51.889Z,9.83
2024-01-11T18:22:18.791Z,11.97
2024-01-11T18:24:48.447Z,11.90
2024-01-11T18:27:15.373Z,10.33
2024-01-11T18:29:42.342Z,6.20
2024-01-11T18:32:09.415Z,4.50
2024-01-11T18:34:36.336Z,4.33
2024-01-11T18:37:03.472Z,4.50
2024-01-11T18:39:30.446Z,4.70
2024-01-11T18:41:58.972Z,7.30
2024-01-11T18:44:26.892Z,5.00
2024-01-11T18:46:53.876Z,4.30
2024-01-11T18:49:21.114Z,5.17
2024-01-11T18:51:48.577Z,4.73
2024-01-11T18:54:15.780Z,4.27
2024-01-11T18:56:43.793Z,4.87
2024-01-11T18:59:10.830Z,4.43
2024-01-11T19:01:37.739Z,4.13
2024-01-11T19:04:04.891Z,5.70
2024-01-11T19:06:32.007Z,4.07
2024-01-11T19:08:59.201Z,4.47
2024-01-11T19:11:26.963Z,4.10
2024-01-11T19:13:53.872Z,5.20
2024-01-11T19:16:20.826Z,3.97
2024-01-11T19:18:50.898Z,4.20
2024-01-11T19:21:19.637Z,4.37
2024-01-11T19:23:46.733Z,3.27
2024-01-11T19:28:58.629Z,3.77
2024-01-11T19:31:25.916Z,3.87
2024-01-11T19:33:55.451Z,3.43
2024-01-11T19:36:31.018Z,3.90
2024-01-11T19:39:02.149Z,4.50
2024-01-11T19:41:33.049Z,4.63
2024-01-11T19:44:00.880Z,4.30
2024-01-11T19:49:39.357Z,4.97
2024-01-11T19:52:06.716Z,4.30
2024-01-11T19:54:34.209Z,5.23
2024-01-11T19:57:01.745Z,5.77
2024-01-11T19:59:29.375Z,4.43
2024-01-11T20:01:57.961Z,3.67
2024-01-11T20:04:37.855Z,4.63
2024-01-11T20:21:22.475Z,3.30
2024-01-11T20:24:02.463Z,4.10
2024-01-11T20:26:29.994Z,3.37
2024-01-11T20:29:00.240Z,3.40
2024-01-11T20:31:27.799Z,3.67
2024-01-11T20:33:57.713Z,3.80
2024-01-11T20:36:25.504Z,4.10
2024-01-11T20:38:53.087Z,3.70
2024-01-11T20:41:21.194Z,3.40
2024-01-11T20:43:50.516Z,4.57
2024-01-11T20:46:27.373Z,3.47
2024-01-11T20:48:55.785Z,3.60
2024-01-11T20:51:23.156Z,3.87
2024-01-11T20:53:51.401Z,3.33
2024-01-11T20:56:18.655Z,3.90
2024-01-11T20:58:45.956Z,3.63
2024-01-11T21:01:13.453Z,4.40
2024-01-11T21:03:40.578Z,3.50
2024-01-11T21:06:08.501Z,3.30
2024-01-11T21:08:35.938Z,3.80
2024-01-11T21:11:03.690Z,3.70
2024-01-11T21:13:30.903Z,3.70
2024-01-11T21:15:58.494Z,3.37
2024-01-11T21:18:25.856Z,4.03
2024-01-11T21:20:53.126Z,3.17
2024-01-11T21:23:20.042Z,3.77
2024-01-11T21:25:47.126Z,5.77
2024-01-11T21:28:15.544Z,4.13
2024-01-11T21:30:42.903Z,3.90
2024-01-11T21:33:10.008Z,3.73
2024-01-11T21:35:37.086Z,3.90
2024-01-11T21:38:04.161Z,4.20
2024-01-11T21:40:31.781Z,4.53
2024-01-11T21:42:58.746Z,3.17
2024-01-11T21:45:25.677Z,3.67
2024-01-11T21:47:53.162Z,3.30
2024-01-11T21:50:20.308Z,3.70
2024-01-11T21:52:47.679Z,3.97
2024-01-11T21:55:15.197Z,4.37
2024-01-11T21:57:42.398Z,4.07
2024-01-11T22:00:12.213Z,4.73
2024-01-11T22:02:39.249Z,4.43
2024-01-11T22:05:08.788Z,4.40
2024-01-11T22:07:35.632Z,3.17
2024-01-11T22:10:02.536Z,4.33
2024-01-11T22:12:29.436Z,4.43
2024-01-11T22:14:56.304Z,4.70
2024-01-11T22:17:23.468Z,5.50
2024-01-11T22:19:50.948Z,4.53
2024-01-11T22:22:17.949Z,3.53
2024-01-11T22:24:44.781Z,3.57
2024-01-11T22:27:11.987Z,4.43
2024-01-11T22:29:38.987Z,4.37
2024-01-11T22:32:06.397Z,4.30
2024-01-11T22:34:33.304Z,4.87
2024-01-11T22:37:00.283Z,4.70
2024-01-11T22:39:27.623Z,4.30
2024-01-11T22:41:55.038Z,4.43
2024-01-11T22:44:22.084Z,4.30
2024-01-11T22:46:48.981Z,4.07
2024-01-11T22:49:15.951Z,4.43
2024-01-11T22:51:42.788Z,4.87
2024-01-11T22:54:09.636Z,5.00
2024-01-11T22:56:38.458Z,4.77
2024-01-11T22:59:06.233Z,4.47
2024-01-11T23:01:33.586Z,3.67
2024-01-11T23:04:00.499Z,4.27
2024-01-11T23:06:27.624Z,4.23
2024-01-11T23:08:54.646Z,5.37
2024-01-11T23:11:21.673Z,3.80
2024-01-11T23:13:48.628Z,3.90
2024-01-11T23:16:15.637Z,3.67
2024-01-11T23:18:45.123Z,4.40
2024-01-11T23:21:12.480Z,5.80
2024-01-11T23:23:39.385Z,3.70
2024-01-11T23:26:06.632Z,3.70
2024-01-11T23:28:33.565Z,3.93
2024-01-11T23:31:00.601Z,3.77
2024-01-11T23:33:27.918Z,3.47
2024-01-11T23:35:56.292Z,3.63
2024-01-11T23:38:23.286Z,4.17
2024-01-11T23:40:50.203Z,3.43
2024-01-11T23:43:17.889Z,3.33
2024-01-11T23:45:45.113Z,3.70
2024-01-11T23:48:12.122Z,3.17
2024-01-11T23:50:39.347Z,3.63
2024-01-11T23:53:06.394Z,3.87
2024-01-11T23:55:33.477Z,6.00
2024-01-11T23:58:00.344Z,4.00
